TimeEDT,TemperatureF,Dew PointF,Humidity,Sea Level PressureIn,VisibilityMPH,Wind Direction,Wind SpeedMPH,Gust SpeedMPH,PrecipitationIn,Events,Conditions,WindDirDegrees,DateUTC
12:53 AM,46.9,44.1,90,29.59,7.0,SSW,3.5,-,0.05,Rain,Light Rain,210,2012-10-20 04:53:00
1:53 AM,46.0,44.1,93,29.59,10.0,Calm,Calm,-,0.02,Rain,Light Rain,0,2012-10-20 05:53:00
2:53 AM,46.9,44.1,90,29.60,8.0,Calm,Calm,-,0.01,Rain,Light Rain,0,2012-10-20 06:53:00
3:08 AM,46.4,44.6,93,29.59,8.0,Calm,Calm,-,0.01,Rain,Light Rain,0,2012-10-20 07:08:00
3:53 AM,46.9,44.1,90,29.60,8.0,Calm,Calm,-,0.01,Rain,Light Rain,0,2012-10-20 07:53:00
4:53 AM,46.0,44.1,93,29.60,7.0,SW,5.8,-,0.02,Rain,Light Rain,230,2012-10-20 08:53:00
5:27 AM,46.4,44.6,93,29.60,7.0,WSW,3.5,-,0.01,Rain,Light Rain,240,2012-10-20 09:27:00
5:40 AM,46.4,44.6,93,29.60,7.0,WSW,3.5,-,0.02,Rain,Light Rain,240,2012-10-20 09:40:00
5:50 AM,46.4,44.6,93,29.60,6.0,WSW,4.6,-,0.02,Rain,Light Rain,240,2012-10-20 09:50:00
5:53 AM,46.0,44.1,93,29.61,6.0,WSW,3.5,-,0.02,Rain,Light Rain,250,2012-10-20 09:53:00
6:20 AM,46.4,44.6,93,29.61,7.0,WSW,4.6,-,0.00,Rain,Light Rain,250,2012-10-20 10:20:00
6:53 AM,46.0,44.1,93,29.62,6.0,West,4.6,-,0.00,Rain,Light Rain,270,2012-10-20 10:53:00
7:04 AM,46.4,44.6,93,29.61,7.0,West,3.5,-,0.01,Rain,Light Rain,260,2012-10-20 11:04:00
7:53 AM,46.0,44.1,93,29.63,7.0,WSW,5.8,-,0.01,,Overcast,250,2012-10-20 11:53:00
8:53 AM,46.0,44.1,93,29.65,6.0,West,10.4,-,0.00,,Overcast,270,2012-10-20 12:53:00
9:53 AM,46.9,45.0,93,29.66,9.0,WNW,9.2,-,N/A,,Overcast,290,2012-10-20 13:53:00
10:07 AM,46.4,44.6,93,29.65,10.0,West,10.4,-,N/A,,Overcast,280,2012-10-20 14:07:00
10:53 AM,46.9,45.0,93,29.67,9.0,West,10.4,-,N/A,,Overcast,270,2012-10-20 14:53:00
11:53 AM,48.9,45.0,86,29.69,10.0,West,10.4,-,N/A,,Overcast,280,2012-10-20 15:53:00
12:12 PM,50.0,44.6,82,29.69,10.0,West,9.2,-,N/A,,Overcast,280,2012-10-20 16:12:00
12:19 PM,50.0,44.6,82,29.69,10.0,West,8.1,-,N/A,,Overcast,270,2012-10-20 16:19:00
12:53 PM,51.1,45.0,80,29.71,10.0,West,11.5,-,N/A,,Overcast,280,2012-10-20 16:53:00
1:53 PM,53.1,44.1,71,29.72,10.0,WNW,10.4,-,N/A,,Overcast,290,2012-10-20 17:53:00
2:46 PM,57.2,44.6,63,29.71,10.0,WNW,8.1,-,N/A,,Overcast,300,2012-10-20 18:46:00
2:53 PM,55.0,43.0,64,29.72,10.0,NW,8.1,-,N/A,,Overcast,310,2012-10-20 18:53:00
3:53 PM,55.0,44.1,67,29.74,10.0,West,9.2,-,N/A,,Overcast,280,2012-10-20 19:53:00
4:53 PM,55.0,43.0,64,29.76,10.0,West,8.1,-,N/A,,Mostly Cloudy,280,2012-10-20 20:53:00
5:53 PM,54.0,43.0,66,29.78,10.0,WNW,6.9,-,N/A,,Overcast,290,2012-10-20 21:53:00
6:53 PM,51.1,43.0,74,29.80,10.0,WSW,5.8,-,N/A,,Scattered Clouds,250,2012-10-20 22:53:00
7:53 PM,50.0,43.0,77,29.81,10.0,SW,6.9,-,N/A,,Clear,230,2012-10-20 23:53:00
8:53 PM,46.9,42.1,83,29.83,10.0,WSW,8.1,-,N/A,,Clear,250,2012-10-21 00:53:00
9:53 PM,46.9,42.1,83,29.87,10.0,West,9.2,-,N/A,,Clear,260,2012-10-21 01:53:00
10:53 PM,46.0,42.1,86,29.88,10.0,WSW,8.1,-,N/A,,Clear,250,2012-10-21 02:53:00
11:53 PM,44.1,42.1,93,29.89,10.0,WSW,8.1,-,N/A,,Clear,240,2012-10-21 03:53:00